createdAt,value
2018-05-13T00:00:46.160Z,16.94
2018-05-13T00:03:13.899Z,16.90
2018-05-13T00:05:41.871Z,16.89
2018-05-13T00:08:09.421Z,16.89
2018-05-13T00:10:36.933Z,16.89
2018-05-13T00:13:04.512Z,16.88
2018-05-13T00:15:32.181Z,16.84
2018-05-13T00:17:59.805Z,16.80
2018-05-13T00:20:27.470Z,16.80
2018-05-13T00:22:55.101Z,16.77
2018-05-13T00:25:22.721Z,16.70
2018-05-13T00:27:50.383Z,16.66
2018-05-13T00:30:17.988Z,16.63
2018-05-13T00:32:45.529Z,16.64
2018-05-13T00:35:13.072Z,16.67
2018-05-13T00:37:40.613Z,16.62
2018-05-13T00:40:08.218Z,16.48
2018-05-13T00:42:35.874Z,16.52
2018-05-13T00:45:03.582Z,16.56
2018-05-13T00:47:31.356Z,16.57
2018-05-13T00:49:58.993Z,16.52
2018-05-13T00:52:26.624Z,16.49
2018-05-13T00:54:58.997Z,16.43
2018-05-13T00:57:26.545Z,16.43
2018-05-13T00:59:54.163Z,16.45
2018-05-13T01:02:21.853Z,16.28
2018-05-13T01:04:49.508Z,16.20
2018-05-13T01:07:17.064Z,16.14
2018-05-13T01:09:44.584Z,16.07
2018-05-13T01:12:12.280Z,16.04
2018-05-13T01:14:39.970Z,15.97
2018-05-13T01:17:07.592Z,15.93
2018-05-13T01:19:35.205Z,15.92
2018-05-13T01:22:02.868Z,15.91
2018-05-13T01:24:30.393Z,15.95
2018-05-13T01:26:57.925Z,15.96
2018-05-13T01:29:25.488Z,15.93
2018-05-13T01:31:53.042Z,15.92
2018-05-13T01:34:20.561Z,15.83
2018-05-13T01:36:48.153Z,15.75
2018-05-13T01:39:15.656Z,15.72
2018-05-13T01:41:43.232Z,15.75
2018-05-13T01:46:44.422Z,15.77
2018-05-13T01:49:11.974Z,15.79
2018-05-13T01:51:39.505Z,15.78
2018-05-13T01:54:07.128Z,15.78
2018-05-13T01:56:34.828Z,15.62
2018-05-13T01:59:02.385Z,15.61
2018-05-13T02:01:30.119Z,15.62
2018-05-13T02:03:57.764Z,15.65
2018-05-13T02:06:25.304Z,15.67
2018-05-13T02:08:52.806Z,15.67
2018-05-13T02:11:20.688Z,15.64
2018-05-13T02:13:48.427Z,15.62
2018-05-13T02:16:16.239Z,15.55
2018-05-13T02:18:43.766Z,15.54
2018-05-13T02:21:11.298Z,15.55
2018-05-13T02:23:38.848Z,15.51
2018-05-13T02:26:06.404Z,15.46
2018-05-13T02:28:34.080Z,15.41
2018-05-13T02:31:01.787Z,15.44
2018-05-13T02:33:29.386Z,15.42
2018-05-13T02:35:57.023Z,15.40
2018-05-13T02:38:24.776Z,15.44
2018-05-13T02:40:52.406Z,15.40
2018-05-13T02:43:20.159Z,15.38
2018-05-13T02:45:47.757Z,15.36
2018-05-13T02:48:15.269Z,15.36
2018-05-13T02:50:42.817Z,15.39
2018-05-13T02:53:10.549Z,15.34
2018-05-13T02:55:38.109Z,15.38
2018-05-13T02:58:05.659Z,15.39
2018-05-13T03:00:33.209Z,15.29
2018-05-13T03:03:00.720Z,15.19
2018-05-13T03:05:28.378Z,15.27
2018-05-13T03:07:55.975Z,15.30
2018-05-13T03:10:23.609Z,15.24
2018-05-13T03:12:51.195Z,15.29
2018-05-13T03:15:18.909Z,15.28
2018-05-13T03:17:47.018Z,15.22
2018-05-13T03:20:14.609Z,15.19
2018-05-13T03:22:42.143Z,15.21
2018-05-13T03:25:10.924Z,15.24
2018-05-13T03:27:38.441Z,15.22
2018-05-13T03:30:05.970Z,15.29
2018-05-13T03:32:33.498Z,15.28
2018-05-13T03:35:01.021Z,15.28
2018-05-13T03:37:28.635Z,15.29
2018-05-13T03:39:56.252Z,15.32
2018-05-13T03:42:24.192Z,15.35
2018-05-13T03:44:52.176Z,15.37
2018-05-13T03:47:20.292Z,15.41
2018-05-13T03:49:47.937Z,15.34
2018-05-13T03:52:15.525Z,15.34
2018-05-13T03:54:43.149Z,15.36
2018-05-13T03:57:11.838Z,15.31
2018-05-13T03:59:39.378Z,15.34
2018-05-13T04:04:40.846Z,15.30
2018-05-13T04:07:08.465Z,15.31
2018-05-13T04:09:47.624Z,15.32
2018-05-13T04:12:26.929Z,15.35
2018-05-13T04:15:06.072Z,15.36
2018-05-13T04:17:33.666Z,15.35
2018-05-13T04:20:01.244Z,15.41
2018-05-13T04:22:28.757Z,15.44
2018-05-13T04:24:56.277Z,15.41
2018-05-13T04:27:23.796Z,15.44
2018-05-13T04:29:51.336Z,15.53
2018-05-13T04:32:18.930Z,15.63
2018-05-13T04:34:46.509Z,15.72
2018-05-13T04:37:14.148Z,15.70
2018-05-13T04:39:41.826Z,15.75
2018-05-13T04:42:09.444Z,15.80
2018-05-13T04:44:37.145Z,15.86
2018-05-13T04:47:04.761Z,15.88
2018-05-13T04:49:32.412Z,15.95
2018-05-13T04:52:00.052Z,16.02
2018-05-13T04:54:27.738Z,16.07
2018-05-13T04:56:55.391Z,16.11
2018-05-13T04:59:22.913Z,16.12
2018-05-13T05:01:50.532Z,16.12
2018-05-13T05:04:18.127Z,16.10
2018-05-13T05:06:45.769Z,16.14
2018-05-13T05:09:13.446Z,16.23
2018-05-13T05:11:41.054Z,16.33
2018-05-13T05:14:08.624Z,16.41
2018-05-13T05:16:36.161Z,16.43
2018-05-13T05:19:03.748Z,16.47
2018-05-13T05:21:31.291Z,16.56
2018-05-13T05:23:58.849Z,16.64
2018-05-13T05:26:26.429Z,16.65
2018-05-13T05:28:53.959Z,16.74
2018-05-13T05:31:21.485Z,16.81
2018-05-13T05:33:49.008Z,16.90
2018-05-13T05:36:16.647Z,16.97
2018-05-13T05:38:44.307Z,17.05
2018-05-13T05:41:11.894Z,17.13
2018-05-13T05:43:39.461Z,17.21
2018-05-13T05:46:07.048Z,17.31
2018-05-13T05:48:34.678Z,17.40
2018-05-13T05:51:02.201Z,17.48
2018-05-13T05:53:29.703Z,17.55
2018-05-13T05:55:57.230Z,17.66
2018-05-13T05:58:24.859Z,17.77
2018-05-13T06:00:52.401Z,17.79
2018-05-13T06:03:20.021Z,17.94
2018-05-13T06:05:47.580Z,17.85
2018-05-13T06:08:15.154Z,17.94
2018-05-13T06:10:42.713Z,18.10
2018-05-13T06:13:10.620Z,18.00
2018-05-13T06:15:38.225Z,18.11
2018-05-13T06:18:05.809Z,18.31
2018-05-13T06:20:33.459Z,18.55
2018-05-13T06:23:01.001Z,18.33
2018-05-13T06:25:28.692Z,18.51
2018-05-13T06:27:57.232Z,18.79
2018-05-13T06:30:24.773Z,18.90
2018-05-13T06:32:52.295Z,19.06
2018-05-13T06:35:19.922Z,19.33
2018-05-13T06:37:48.117Z,19.52
2018-05-13T06:40:15.679Z,19.62
2018-05-13T06:42:43.221Z,19.68
2018-05-13T06:45:10.837Z,19.82
2018-05-13T06:47:38.595Z,19.96
2018-05-13T06:50:06.132Z,20.01
2018-05-13T06:52:33.685Z,20.06
2018-05-13T06:55:01.233Z,20.17
2018-05-13T06:57:28.850Z,20.16
2018-05-13T06:59:56.413Z,20.44
2018-05-13T07:02:24.049Z,20.51
2018-05-13T07:04:51.583Z,20.60
2018-05-13T07:07:19.228Z,20.72
2018-05-13T07:09:46.796Z,20.79
2018-05-13T07:12:14.465Z,20.94
2018-05-13T07:14:42.109Z,20.99
2018-05-13T07:17:10.104Z,21.08
2018-05-13T07:19:37.789Z,21.18
2018-05-13T07:22:05.317Z,21.26
2018-05-13T07:24:32.879Z,21.39
2018-05-13T07:27:00.437Z,21.09
2018-05-13T07:32:06.253Z,21.38
2018-05-13T07:34:33.794Z,21.49
2018-05-13T07:37:01.371Z,21.64
2018-05-13T07:39:29.013Z,21.82
2018-05-13T07:41:56.564Z,21.92
2018-05-13T07:44:24.109Z,21.99
2018-05-13T07:46:51.623Z,22.01
2018-05-13T07:49:19.204Z,22.03
2018-05-13T07:51:46.905Z,22.03
2018-05-13T07:54:14.560Z,22.16
2018-05-13T07:56:42.124Z,22.12
2018-05-13T07:59:10.599Z,22.15
2018-05-13T08:01:38.221Z,22.28
2018-05-13T08:04:05.919Z,22.45
2018-05-13T08:06:33.666Z,22.64
2018-05-13T08:09:02.363Z,22.85
2018-05-13T08:11:32.960Z,22.89
2018-05-13T08:14:00.488Z,22.96
2018-05-13T08:16:28.038Z,22.96
2018-05-13T08:18:55.992Z,23.20
2018-05-13T08:23:57.260Z,23.33
2018-05-13T08:26:24.806Z,23.13
2018-05-13T08:28:52.468Z,23.20
2018-05-13T08:31:20.935Z,23.14
2018-05-13T08:33:48.451Z,23.37
2018-05-13T08:36:15.989Z,23.43
2018-05-13T08:38:43.578Z,23.54
2018-05-13T08:41:11.480Z,23.66
2018-05-13T08:43:39.179Z,23.87
2018-05-13T08:46:06.779Z,24.03
2018-05-13T08:48:35.529Z,24.09
2018-05-13T08:51:04.210Z,24.17
2018-05-13T08:53:31.789Z,24.32
2018-05-13T08:55:59.356Z,24.50
2018-05-13T08:58:28.068Z,23.06
2018-05-13T09:00:56.915Z,23.36
2018-05-13T09:03:24.969Z,23.80
2018-05-13T09:05:52.623Z,23.95
2018-05-13T09:08:20.308Z,23.80
2018-05-13T09:10:48.562Z,23.77
2018-05-13T09:13:18.935Z,24.05
2018-05-13T09:15:50.238Z,24.18
2018-05-13T09:18:17.924Z,24.19
2018-05-13T09:20:49.436Z,24.31
2018-05-13T09:23:16.946Z,24.55
2018-05-13T09:25:45.474Z,24.74
2018-05-13T09:28:13.006Z,24.92
2018-05-13T09:30:40.700Z,24.38
2018-05-13T09:33:08.460Z,23.48
2018-05-13T09:35:36.652Z,23.46
2018-05-13T09:38:05.307Z,23.82
2018-05-13T09:40:33.557Z,23.67
2018-05-13T09:43:02.021Z,23.73
2018-05-13T09:45:29.715Z,23.93
2018-05-13T09:47:57.357Z,24.03
2018-05-13T09:50:27.536Z,24.21
2018-05-13T09:52:55.824Z,24.21
2018-05-13T09:55:25.484Z,23.87
2018-05-13T09:57:53.151Z,24.09
2018-05-13T10:00:22.754Z,23.84
2018-05-13T10:02:53.849Z,24.42
2018-05-13T10:05:22.442Z,24.53
2018-05-13T10:07:50.124Z,24.76
2018-05-13T10:10:23.987Z,24.98
2018-05-13T10:15:35.951Z,25.38
2018-05-13T10:18:03.508Z,25.03
2018-05-13T10:20:34.625Z,25.47
2018-05-13T10:23:07.055Z,25.59
2018-05-13T10:25:36.004Z,25.48
2018-05-13T10:28:04.823Z,25.27
2018-05-13T10:30:36.432Z,25.18
2018-05-13T10:33:10.354Z,25.46
2018-05-13T10:35:47.994Z,25.70
2018-05-13T10:38:19.904Z,25.75
2018-05-13T10:40:49.039Z,25.87
2018-05-13T10:43:17.640Z,25.73
2018-05-13T10:45:47.695Z,25.73
2018-05-13T10:48:15.619Z,25.81
2018-05-13T10:50:44.318Z,25.98
2018-05-13T10:53:13.065Z,26.01
2018-05-13T10:55:43.619Z,26.33
2018-05-13T10:58:12.914Z,25.97
2018-05-13T11:00:41.165Z,26.06
2018-05-13T11:03:09.378Z,26.30
2018-05-13T11:05:37.718Z,26.59
2018-05-13T11:08:05.461Z,26.83
2018-05-13T11:10:33.452Z,26.85
2018-05-13T11:13:02.641Z,26.65
2018-05-13T11:15:32.466Z,26.42
2018-05-13T11:18:00.269Z,26.34
2018-05-13T11:20:29.021Z,26.54
2018-05-13T11:22:57.690Z,26.82
2018-05-13T11:25:29.602Z,26.89
2018-05-13T11:28:03.829Z,27.06
2018-05-13T11:30:35.019Z,26.46
2018-05-13T11:33:06.257Z,26.46
2018-05-13T11:35:42.836Z,26.57
2018-05-13T11:38:12.131Z,26.66
2018-05-13T11:40:43.829Z,26.75
2018-05-13T11:43:16.196Z,26.71
2018-05-13T11:45:45.067Z,26.64
2018-05-13T11:48:13.512Z,26.52
2018-05-13T11:50:41.186Z,26.53
2018-05-13T11:53:10.569Z,26.72
2018-05-13T11:55:39.164Z,26.91
2018-05-13T12:00:45.241Z,26.87
2018-05-13T12:03:12.913Z,26.96
2018-05-13T12:05:42.223Z,27.03
2018-05-13T12:08:10.292Z,27.03
2018-05-13T12:10:39.367Z,26.99
2018-05-13T12:13:07.384Z,26.89
2018-05-13T12:15:35.141Z,26.35
2018-05-13T12:18:02.673Z,26.54
2018-05-13T12:20:32.737Z,26.58
2018-05-13T12:23:00.979Z,26.55
2018-05-13T12:25:29.630Z,26.69
2018-05-13T12:27:57.709Z,26.58
2018-05-13T12:30:26.973Z,26.70
2018-05-13T12:32:56.051Z,26.81
2018-05-13T12:35:32.021Z,27.00
2018-05-13T12:38:00.824Z,27.20
2018-05-13T12:43:02.125Z,27.21
2018-05-13T12:45:29.765Z,27.16
2018-05-13T12:47:58.172Z,26.92
2018-05-13T12:50:25.831Z,26.49
2018-05-13T12:52:53.446Z,26.53
2018-05-13T12:55:26.820Z,26.71
2018-05-13T12:57:57.733Z,27.04
2018-05-13T13:00:33.659Z,26.84
2018-05-13T13:03:02.394Z,26.95
2018-05-13T13:05:33.501Z,27.15
2018-05-13T13:08:02.089Z,26.70
2018-05-13T13:10:29.703Z,26.87
2018-05-13T13:12:57.338Z,26.16
2018-05-13T13:15:27.208Z,26.59
2018-05-13T13:17:56.194Z,26.89
2018-05-13T13:20:23.782Z,26.39
2018-05-13T13:22:55.442Z,26.39
2018-05-13T13:25:23.268Z,26.25
2018-05-13T13:27:50.873Z,26.16
2018-05-13T13:30:19.431Z,26.55
2018-05-13T13:32:47.145Z,26.71
2018-05-13T13:35:18.849Z,26.67
2018-05-13T13:40:40.863Z,25.54
2018-05-13T13:43:09.540Z,25.82
2018-05-13T13:45:38.687Z,26.17
2018-05-13T13:48:19.952Z,26.33
2018-05-13T13:50:53.666Z,26.31
2018-05-13T13:53:23.817Z,26.19
2018-05-13T13:55:54.457Z,26.05
2018-05-13T13:58:25.553Z,26.23
2018-05-13T14:00:53.171Z,26.66
2018-05-13T14:03:24.557Z,26.87
2018-05-13T14:05:55.983Z,26.83
2018-05-13T14:08:29.482Z,26.88
2018-05-13T14:10:59.113Z,26.53
2018-05-13T14:13:28.857Z,26.32
2018-05-13T14:16:01.393Z,26.42
2018-05-13T14:18:29.915Z,26.57
2018-05-13T14:20:59.893Z,26.60
2018-05-13T14:23:31.651Z,26.39
2018-05-13T14:26:00.740Z,26.11
2018-05-13T14:28:29.830Z,26.07
2018-05-13T14:31:02.043Z,25.82
2018-05-13T14:36:04.428Z,25.90
2018-05-13T14:38:32.864Z,26.21
2018-05-13T14:41:00.827Z,26.14
2018-05-13T14:43:30.839Z,26.36
2018-05-13T14:46:01.301Z,26.40
2018-05-13T14:48:30.259Z,26.17
2018-05-13T14:50:57.779Z,25.29
2018-05-13T14:53:25.323Z,25.56
2018-05-13T14:55:55.003Z,25.83
2018-05-13T14:58:22.795Z,26.01
2018-05-13T15:00:51.798Z,26.16
2018-05-13T15:03:24.024Z,26.27
2018-05-13T15:05:52.523Z,26.34
2018-05-13T15:08:21.000Z,26.34
2018-05-13T15:10:48.585Z,26.49
2018-05-13T15:13:18.849Z,26.37
2018-05-13T15:15:46.932Z,26.18
2018-05-13T15:18:15.105Z,26.21
2018-05-13T15:20:42.692Z,26.22
2018-05-13T15:23:10.434Z,26.16
2018-05-13T15:25:38.051Z,25.97
2018-05-13T15:28:06.798Z,25.93
2018-05-13T15:30:34.449Z,25.91
2018-05-13T15:33:02.149Z,25.97
2018-05-13T15:35:29.680Z,25.90
2018-05-13T15:37:58.250Z,25.40
2018-05-13T15:40:26.681Z,25.55
2018-05-13T15:42:54.338Z,25.55
2018-05-13T15:45:25.740Z,25.66
2018-05-13T15:47:53.821Z,25.68
2018-05-13T15:50:23.376Z,25.78
2018-05-13T15:52:51.065Z,25.65
2018-05-13T15:55:18.838Z,25.59
2018-05-13T15:57:46.394Z,25.81
2018-05-13T16:00:14.100Z,25.95
2018-05-13T16:02:41.777Z,25.92
2018-05-13T16:05:09.410Z,25.96
2018-05-13T16:07:37.072Z,25.82
2018-05-13T16:10:04.719Z,25.83
2018-05-13T16:12:33.871Z,25.72
2018-05-13T16:15:01.718Z,25.82
2018-05-13T16:17:37.184Z,25.81
2018-05-13T16:20:08.358Z,25.67
2018-05-13T16:22:37.588Z,25.74
2018-05-13T16:25:05.631Z,25.71
2018-05-13T16:27:36.023Z,25.58
2018-05-13T16:30:05.565Z,25.53
2018-05-13T16:32:38.584Z,25.61
2018-05-13T16:35:08.771Z,25.58
2018-05-13T16:37:37.200Z,25.46
2018-05-13T16:40:08.831Z,25.16
2018-05-13T16:42:36.491Z,25.16
2018-05-13T16:45:04.975Z,25.10
2018-05-13T16:47:32.713Z,25.21
2018-05-13T16:50:03.770Z,25.05
2018-05-13T16:52:32.514Z,25.07
2018-05-13T16:55:01.287Z,25.01
2018-05-13T16:57:29.812Z,24.92
2018-05-13T17:00:00.228Z,24.69
2018-05-13T17:02:30.171Z,24.72
2018-05-13T17:04:58.874Z,24.60
2018-05-13T17:07:26.519Z,24.41
2018-05-13T17:09:54.131Z,24.42
2018-05-13T17:14:58.837Z,24.36
2018-05-13T17:17:29.351Z,24.20
2018-05-13T17:19:56.944Z,24.14
2018-05-13T17:22:28.057Z,23.97
2018-05-13T17:24:55.766Z,23.89
2018-05-13T17:27:29.135Z,23.93
2018-05-13T17:29:56.762Z,23.77
2018-05-13T17:32:24.228Z,23.77
2018-05-13T17:34:51.719Z,23.61
2018-05-13T17:37:22.154Z,23.60
2018-05-13T17:39:49.810Z,23.43
2018-05-13T17:42:18.363Z,23.26
2018-05-13T17:44:46.005Z,23.19
2018-05-13T17:47:14.904Z,23.16
2018-05-13T17:49:43.259Z,23.16
2018-05-13T17:52:10.811Z,23.13
2018-05-13T17:54:38.399Z,23.07
2018-05-13T17:57:05.970Z,23.11
2018-05-13T17:59:33.724Z,23.01
2018-05-13T18:02:02.311Z,22.79
2018-05-13T18:04:30.001Z,22.83
2018-05-13T18:06:57.681Z,22.86
2018-05-13T18:09:25.397Z,22.86
2018-05-13T18:11:52.977Z,22.84
2018-05-13T18:14:20.957Z,22.81
2018-05-13T18:16:49.044Z,22.62
2018-05-13T18:19:18.239Z,22.57
2018-05-13T18:21:45.888Z,22.47
2018-05-13T18:24:15.369Z,22.37
2018-05-13T18:26:42.901Z,22.18
2018-05-13T18:29:12.736Z,22.14
2018-05-13T18:31:41.611Z,22.15
2018-05-13T18:34:09.733Z,22.13
2018-05-13T18:36:38.377Z,22.19
2018-05-13T18:39:06.112Z,22.04
2018-05-13T18:41:33.795Z,22.04
2018-05-13T18:44:01.430Z,22.07
2018-05-13T18:46:29.075Z,22.01
2018-05-13T18:48:56.776Z,21.90
2018-05-13T18:51:25.182Z,21.95
2018-05-13T18:53:52.904Z,21.96
2018-05-13T18:56:20.713Z,21.97
2018-05-13T18:58:48.412Z,21.75
2018-05-13T19:01:16.685Z,21.68
2018-05-13T19:03:44.460Z,21.62
2018-05-13T19:06:13.162Z,21.64
2018-05-13T19:08:40.817Z,21.66
2018-05-13T19:11:11.038Z,21.50
2018-05-13T19:13:40.429Z,21.65
2018-05-13T19:16:08.080Z,21.54
2018-05-13T19:18:35.727Z,21.55
2018-05-13T19:21:03.324Z,21.40
2018-05-13T19:23:32.212Z,21.47
2018-05-13T19:25:59.899Z,21.43
2018-05-13T19:28:27.516Z,21.42
2018-05-13T19:30:55.277Z,21.40
2018-05-13T19:33:24.116Z,21.15
2018-05-13T19:35:52.332Z,21.21
2018-05-13T19:38:20.123Z,21.25
2018-05-13T19:40:47.878Z,21.24
2018-05-13T19:43:15.559Z,21.23
2018-05-13T19:45:43.136Z,21.26
2018-05-13T19:48:10.667Z,21.40
2018-05-13T19:50:38.271Z,21.41
2018-05-13T19:53:05.855Z,21.41
2018-05-13T19:55:33.462Z,21.39
2018-05-13T19:58:01.713Z,21.42
2018-05-13T20:00:29.259Z,21.47
2018-05-13T20:02:57.127Z,21.45
2018-05-13T20:05:24.763Z,21.46
2018-05-13T20:07:52.340Z,21.36
2018-05-13T20:10:19.859Z,21.33
2018-05-13T20:12:48.203Z,21.38
2018-05-13T20:15:17.508Z,21.26
2018-05-13T20:17:45.430Z,21.20
2018-05-13T20:20:13.108Z,21.23
2018-05-13T20:22:48.700Z,21.23
2018-05-13T20:25:16.799Z,21.10
2018-05-13T20:27:44.921Z,21.09
2018-05-13T20:30:12.523Z,21.06
2018-05-13T20:32:40.250Z,21.15
2018-05-13T20:35:07.857Z,21.10
2018-05-13T20:37:35.596Z,21.04
2018-05-13T20:40:03.251Z,21.02
2018-05-13T20:42:30.881Z,21.02
2018-05-13T20:44:59.436Z,20.99
2018-05-13T20:47:28.013Z,21.01
2018-05-13T20:49:55.607Z,21.04
2018-05-13T20:52:23.250Z,21.01
2018-05-13T20:54:50.841Z,21.01
2018-05-13T20:57:18.374Z,20.98
2018-05-13T20:59:45.933Z,20.99
2018-05-13T21:02:13.780Z,20.98
2018-05-13T21:04:41.327Z,20.97
2018-05-13T21:07:08.982Z,21.00
2018-05-13T21:09:36.571Z,21.05
2018-05-13T21:12:04.161Z,21.06
2018-05-13T21:14:31.803Z,21.08
2018-05-13T21:16:59.409Z,21.04
2018-05-13T21:19:27.009Z,21.05
2018-05-13T21:21:54.634Z,21.04
2018-05-13T21:24:22.270Z,21.06
2018-05-13T21:26:49.830Z,21.09
2018-05-13T21:29:18.806Z,21.03
2018-05-13T21:31:46.355Z,20.92
2018-05-13T21:34:13.862Z,20.98
2018-05-13T21:36:41.389Z,20.98
2018-05-13T21:39:08.943Z,20.98
2018-05-13T21:41:36.539Z,20.98
2018-05-13T21:44:04.104Z,20.92
2018-05-13T21:46:31.638Z,20.92
2018-05-13T21:48:59.159Z,20.90
2018-05-13T21:51:26.762Z,20.78
2018-05-13T21:53:54.440Z,20.78
2018-05-13T21:56:22.052Z,20.86
2018-05-13T21:58:50.013Z,20.87
2018-05-13T22:01:17.603Z,20.86
2018-05-13T22:03:45.208Z,20.82
2018-05-13T22:06:12.901Z,20.84
2018-05-13T22:08:40.560Z,20.78
2018-05-13T22:11:08.096Z,20.75
2018-05-13T22:13:35.779Z,20.74
2018-05-13T22:16:03.296Z,20.70
2018-05-13T22:18:30.839Z,20.69
2018-05-13T22:20:58.366Z,20.56
2018-05-13T22:23:25.852Z,20.52
2018-05-13T22:25:53.377Z,20.48
2018-05-13T22:28:20.964Z,20.48
2018-05-13T22:30:48.495Z,20.43
2018-05-13T22:33:16.035Z,20.31
2018-05-13T22:35:43.654Z,20.35
2018-05-13T22:38:11.241Z,20.39
2018-05-13T22:40:38.943Z,20.36
2018-05-13T22:43:06.809Z,20.33
2018-05-13T22:45:34.405Z,20.34
2018-05-13T22:48:01.993Z,20.25
2018-05-13T22:50:29.588Z,20.20
2018-05-13T22:52:57.127Z,20.22
2018-05-13T22:55:24.664Z,20.23
2018-05-13T22:57:52.373Z,20.11
2018-05-13T23:00:19.959Z,20.08
2018-05-13T23:02:47.544Z,19.99
2018-05-13T23:05:15.215Z,19.90
2018-05-13T23:07:42.768Z,19.82
2018-05-13T23:10:10.326Z,19.74
2018-05-13T23:12:37.919Z,19.60
2018-05-13T23:15:05.516Z,19.50
2018-05-13T23:17:33.112Z,19.50
2018-05-13T23:20:00.706Z,19.44
2018-05-13T23:22:35.104Z,19.41
2018-05-13T23:25:02.803Z,19.30
2018-05-13T23:27:30.437Z,19.25
2018-05-13T23:29:57.982Z,19.17
2018-05-13T23:32:25.515Z,19.07
2018-05-13T23:34:53.138Z,18.99
2018-05-13T23:39:54.607Z,18.93
2018-05-13T23:42:22.225Z,18.87
2018-05-13T23:44:49.795Z,18.84
2018-05-13T23:47:17.366Z,18.81
2018-05-13T23:49:44.953Z,18.75
2018-05-13T23:52:12.544Z,18.74
2018-05-13T23:54:40.146Z,18.73
2018-05-13T23:57:07.779Z,18.76
2018-05-13T23:59:35.312Z,18.77
